Andover, Massachusetts
Current Conditions -  °F | °C
As of 1:37 AM on Thursday 27 Nov 2014 (Local Time) from KLWM Reporting Station
Light Snow Light Snow  
Wind Chill: 22°   Ceiling: 1400
Heat Index: 32°   Visibility: 1.5mi
Dew Point: 30°   Wind: 14mph
Humidity: 92%   Direction: 350°N
Pressure: 29.74"   Gusts: 21mph
Location:  42.65°N, 71.14°W
Report Text: KLWM 270637Z AUTO 35012G18KT 1 1/2SM -SN BR SCT007 OVC014 00/M01 A2974 RMK AO2 P0000 T00001011
Loading
Personal Weather Stations






























Interactive Weather Map New forecast layout! Learn more

10-Day Weather Forecast

Advertisements
Track Severe Weather on mobile